createdAt,value
2022-12-26T00:02:01.545Z,101865.88
2022-12-26T00:04:51.549Z,101853.75
2022-12-26T00:07:14.474Z,101845.16
2022-12-26T00:09:40.899Z,101849.38
2022-12-26T00:12:07.374Z,101850.47
2022-12-26T00:14:33.952Z,101838.34
2022-12-26T00:17:00.344Z,101847.91
2022-12-26T00:19:26.759Z,101854.50
2022-12-26T00:21:53.216Z,101851.19
2022-12-26T00:24:19.621Z,101850.09
2022-12-26T00:26:46.034Z,101860.34
2022-12-26T00:29:12.477Z,101862.34
2022-12-26T00:31:38.928Z,101851.38
2022-12-26T00:34:05.487Z,101846.41
2022-12-26T00:36:33.747Z,101853.38
2022-12-26T00:39:01.949Z,101848.25
2022-12-26T00:41:29.005Z,101845.66
2022-12-26T00:43:56.273Z,101844.91
2022-12-26T00:46:23.343Z,101841.09
2022-12-26T00:48:49.834Z,101848.81
2022-12-26T00:51:16.371Z,101854.84
2022-12-26T00:53:43.108Z,101850.81
2022-12-26T00:56:09.839Z,101851.91
2022-12-26T00:58:36.858Z,101850.81
2022-12-26T01:01:10.814Z,101849.72
2022-12-26T01:03:37.386Z,101859.06
2022-12-26T01:06:04.227Z,101860.72
2022-12-26T01:08:31.166Z,101862.94
2022-12-26T01:10:58.108Z,101872.63
2022-12-26T01:13:24.561Z,101861.44
2022-12-26T01:15:52.482Z,101875.03
2022-12-26T01:18:19.621Z,101872.06
2022-12-26T01:20:46.363Z,101871.00
2022-12-26T01:23:12.803Z,101875.94
2022-12-26T01:26:19.308Z,101870.81
2022-12-26T01:28:26.570Z,101871.22
2022-12-26T01:30:53.099Z,101873.97
2022-12-26T01:33:19.665Z,101881.28
2022-12-26T01:35:51.153Z,101863.50
2022-12-26T01:38:17.589Z,101868.97
2022-12-26T01:40:44.440Z,101861.25
2022-12-26T01:43:12.677Z,101855.97
2022-12-26T01:45:39.705Z,101875.75
2022-12-26T01:48:18.692Z,101877.59
2022-12-26T01:50:53.047Z,101873.56
2022-12-26T01:53:28.901Z,101876.28
2022-12-26T01:56:01.260Z,101872.63
2022-12-26T01:58:34.166Z,101872.81
2022-12-26T02:01:03.588Z,101873.56
2022-12-26T02:03:48.929Z,101877.59
2022-12-26T02:06:16.241Z,101879.41
2022-12-26T02:08:44.237Z,101875.38
2022-12-26T02:11:37.812Z,101868.00
2022-12-26T02:14:07.276Z,101869.69
2022-12-26T02:16:35.921Z,101858.69
2022-12-26T02:19:03.732Z,101872.84
2022-12-26T02:21:33.138Z,101864.97
2022-12-26T02:23:59.530Z,101861.84
2022-12-26T02:26:48.161Z,101859.25
2022-12-26T02:29:23.636Z,101871.38
2022-12-26T02:32:14.689Z,101861.44
2022-12-26T02:35:14.780Z,101860.31
2022-12-26T02:38:02.991Z,101864.34
2022-12-26T02:40:53.802Z,101863.44
2022-12-26T02:43:45.264Z,101848.25
2022-12-26T02:46:39.442Z,101847.47
2022-12-26T02:49:17.839Z,101849.38
2022-12-26T02:52:15.023Z,101856.88
2022-12-26T02:54:59.674Z,101849.38
2022-12-26T02:57:59.714Z,101843.50
2022-12-26T03:00:46.050Z,101839.13
2022-12-26T03:03:37.257Z,101834.38
2022-12-26T03:06:24.082Z,101823.34
2022-12-26T03:09:32.224Z,101843.31
2022-12-26T03:12:25.060Z,101818.72
2022-12-26T03:14:57.955Z,101810.88
2022-12-26T03:17:30.653Z,101825.53
2022-12-26T03:20:03.307Z,101827.22
2022-12-26T03:22:41.702Z,101824.16
2022-12-26T03:25:30.391Z,101814.41
2022-12-26T03:27:57.053Z,101821.91
2022-12-26T03:30:42.038Z,101819.34
2022-12-26T03:33:31.498Z,101807.59
2022-12-26T03:35:58.765Z,101810.03
2022-12-26T03:38:55.301Z,101800.13
2022-12-26T03:41:58.389Z,101800.63
2022-12-26T03:44:55.727Z,101804.28
2022-12-26T03:47:58.723Z,101809.03
2022-12-26T03:51:08.543Z,101811.25
2022-12-26T03:54:22.127Z,101820.06
2022-12-26T03:57:14.362Z,101818.22
2022-12-26T04:00:11.156Z,101819.66
2022-12-26T04:02:58.808Z,101813.09
2022-12-26T04:05:44.610Z,101824.44
2022-12-26T04:08:35.561Z,101815.25
2022-12-26T04:11:22.940Z,101809.03
2022-12-26T04:14:19.614Z,101812.94
2022-12-26T04:17:10.525Z,101815.50
2022-12-26T04:19:51.093Z,101804.28
2022-12-26T04:22:53.648Z,101810.31
2022-12-26T04:25:49.761Z,101813.44
2022-12-26T04:28:37.560Z,101819.66
2022-12-26T04:31:41.697Z,101811.97
2022-12-26T04:34:37.949Z,101806.47
2022-12-26T04:37:30.147Z,101816.16
2022-12-26T04:40:17.368Z,101821.66
2022-12-26T04:43:47.438Z,101814.13
2022-12-26T04:45:52.724Z,101811.75
2022-12-26T04:48:37.834Z,101814.50
2022-12-26T04:51:04.617Z,101815.41
2022-12-26T04:53:31.055Z,101817.78
2022-12-26T04:55:57.433Z,101819.63
2022-12-26T04:58:24.326Z,101821.25
2022-12-26T05:00:51.034Z,101812.66
2022-12-26T05:03:36.399Z,101825.09
2022-12-26T05:06:21.616Z,101821.63
2022-12-26T05:09:06.291Z,101838.69
2022-12-26T05:11:35.166Z,101833.53
2022-12-26T05:14:01.814Z,101835.03
2022-12-26T05:16:47.104Z,101832.09
2022-12-26T05:19:33.850Z,101820.00
2022-12-26T05:22:21.101Z,101819.50
2022-12-26T05:25:06.457Z,101816.59
2022-12-26T05:27:55.790Z,101824.81
2022-12-26T05:30:23.030Z,101835.22
2022-12-26T05:33:07.762Z,101834.66
2022-12-26T05:35:35.404Z,101843.09
2022-12-26T05:38:02.474Z,101848.56
2022-12-26T05:40:28.987Z,101844.19
2022-12-26T05:42:55.435Z,101834.69
2022-12-26T05:45:21.856Z,101839.25
2022-12-26T05:47:51.790Z,101850.28
2022-12-26T05:50:18.701Z,101845.47
2022-12-26T05:52:45.103Z,101838.69
2022-12-26T05:55:11.513Z,101830.31
2022-12-26T05:57:37.957Z,101835.78
2022-12-26T06:00:05.089Z,101844.25
2022-12-26T06:02:31.553Z,101840.19
2022-12-26T06:04:58.018Z,101840.34
2022-12-26T06:07:24.547Z,101840.53
2022-12-26T06:09:50.984Z,101846.75
2022-12-26T06:12:17.402Z,101847.66
2022-12-26T06:14:43.879Z,101830.78
2022-12-26T06:17:10.543Z,101835.16
2022-12-26T06:19:41.517Z,101847.44
2022-12-26T06:22:11.254Z,101850.56
2022-12-26T06:24:37.667Z,101837.94
2022-12-26T06:27:04.227Z,101828.22
2022-12-26T06:29:30.671Z,101833.53
2022-12-26T06:31:57.128Z,101834.09
2022-12-26T06:34:23.617Z,101836.50
2022-12-26T06:36:50.024Z,101822.91
2022-12-26T06:39:16.441Z,101835.94
2022-12-26T06:41:42.865Z,101836.50
2022-12-26T06:44:17.735Z,101824.38
2022-12-26T06:46:44.504Z,101827.72
2022-12-26T06:49:10.962Z,101830.59
2022-12-26T06:51:37.433Z,101831.19
2022-12-26T06:54:04.133Z,101839.25
2022-12-26T06:56:32.399Z,101845.66
2022-12-26T06:59:01.759Z,101842.34
2022-12-26T07:01:30.148Z,101843.09
2022-12-26T07:03:56.995Z,101858.69
2022-12-26T07:06:28.081Z,101857.03
2022-12-26T07:09:01.000Z,101860.69
2022-12-26T07:11:31.174Z,101864.88
2022-12-26T07:13:57.871Z,101865.81
2022-12-26T07:16:25.434Z,101857.94
2022-12-26T07:18:53.932Z,101859.06
2022-12-26T07:21:21.700Z,101857.41
2022-12-26T07:23:48.322Z,101848.63
2022-12-26T07:26:14.942Z,101851.00
2022-12-26T07:28:41.457Z,101864.19
2022-12-26T07:31:08.082Z,101856.31
2022-12-26T07:33:35.180Z,101864.53
2022-12-26T07:36:03.608Z,101862.72
2022-12-26T07:38:30.374Z,101851.19
2022-12-26T07:40:57.329Z,101860.31
2022-12-26T07:43:26.154Z,101860.50
2022-12-26T07:45:52.746Z,101857.94
2022-12-26T07:48:19.268Z,101862.72
2022-12-26T07:50:47.304Z,101869.50
2022-12-26T07:53:14.740Z,101876.09
2022-12-26T07:55:41.395Z,101873.34
2022-12-26T07:58:07.828Z,101879.75
2022-12-26T08:00:34.322Z,101883.38
2022-12-26T08:03:06.951Z,101887.97
2022-12-26T08:05:34.406Z,101887.03
2022-12-26T08:08:00.844Z,101881.91
2022-12-26T08:10:27.367Z,101884.66
2022-12-26T08:12:53.862Z,101878.03
2022-12-26T08:15:20.267Z,101869.81
2022-12-26T08:17:46.687Z,101872.00
2022-12-26T08:20:13.134Z,101866.09
2022-12-26T08:22:39.604Z,101873.81
2022-12-26T08:25:06.611Z,101873.47
2022-12-26T08:27:33.896Z,101863.22
2022-12-26T08:30:00.318Z,101861.72
2022-12-26T08:32:27.009Z,101868.09
2022-12-26T08:34:53.433Z,101874.19
2022-12-26T08:37:19.933Z,101876.34
2022-12-26T08:39:46.386Z,101891.72
2022-12-26T08:42:12.842Z,101903.84
2022-12-26T08:44:39.419Z,101907.50
2022-12-26T08:47:05.868Z,101898.72
2022-12-26T08:49:32.336Z,101893.22
2022-12-26T08:52:12.507Z,101898.75
2022-12-26T08:54:39.005Z,101903.53
2022-12-26T08:57:05.425Z,101911.19
2022-12-26T08:59:31.878Z,101916.31
2022-12-26T09:01:58.336Z,101922.91
2022-12-26T09:04:24.859Z,101916.47
2022-12-26T09:06:51.403Z,101912.75
2022-12-26T09:09:18.336Z,101918.63
2022-12-26T09:11:44.880Z,101916.25
2022-12-26T09:14:11.859Z,101921.53
2022-12-26T09:16:49.540Z,101916.78
2022-12-26T09:19:17.679Z,101923.16
2022-12-26T09:21:44.673Z,101917.31
2022-12-26T09:24:15.919Z,101921.34
2022-12-26T09:26:42.907Z,101920.22
2022-12-26T09:29:15.116Z,101917.44
2022-12-26T09:31:41.548Z,101922.06
2022-12-26T09:34:08.147Z,101915.41
2022-12-26T09:36:42.947Z,101920.00
2022-12-26T09:39:11.241Z,101924.00
2022-12-26T09:42:08.422Z,101921.75
2022-12-26T09:44:48.547Z,101909.28
2022-12-26T09:47:32.121Z,101920.78
2022-12-26T09:50:11.488Z,101922.47
2022-12-26T09:52:40.854Z,101917.13
2022-12-26T09:55:24.959Z,101915.66
2022-12-26T09:57:53.644Z,101916.00
2022-12-26T10:00:30.496Z,101912.69
2022-12-26T10:02:58.903Z,101903.50
2022-12-26T10:05:31.259Z,101904.59
2022-12-26T10:08:23.603Z,101897.97
2022-12-26T10:11:07.526Z,101895.22
2022-12-26T10:13:53.557Z,101903.44
2022-12-26T10:17:00.690Z,101910.78
2022-12-26T10:19:48.755Z,101905.22
2022-12-26T10:23:08.412Z,101899.72
2022-12-26T10:25:43.587Z,101907.44
2022-12-26T10:28:17.244Z,101900.50
2022-12-26T10:30:45.908Z,101895.34
2022-12-26T10:33:20.591Z,101894.41
2022-12-26T10:35:48.009Z,101888.34
2022-12-26T10:38:38.188Z,101882.50
2022-12-26T10:41:26.021Z,101894.59
2022-12-26T10:43:56.577Z,101900.09
2022-12-26T10:46:44.226Z,101900.81
2022-12-26T10:49:13.577Z,101894.59
2022-12-26T10:51:40.089Z,101888.34
2022-12-26T10:54:17.893Z,101889.63
2022-12-26T10:56:46.150Z,101875.88
2022-12-26T10:59:17.780Z,101887.56
2022-12-26T11:01:47.592Z,101886.22
2022-12-26T11:04:53.206Z,101877.47
2022-12-26T11:07:17.491Z,101883.91
2022-12-26T11:09:48.376Z,101891.81
2022-12-26T11:12:25.740Z,101886.31
2022-12-26T11:14:59.237Z,101890.22
2022-12-26T11:17:30.408Z,101887.25
2022-12-26T11:20:25.334Z,101881.34
2022-12-26T11:22:52.537Z,101885.91
2022-12-26T11:25:25.429Z,101887.00
2022-12-26T11:27:57.701Z,101873.63
2022-12-26T11:30:25.793Z,101875.19
2022-12-26T11:33:13.482Z,101867.88
2022-12-26T11:35:51.042Z,101864.16
2022-12-26T11:38:45.062Z,101867.47
2022-12-26T11:41:33.461Z,101866.78
2022-12-26T11:44:21.666Z,101861.06
2022-12-26T11:47:08.406Z,101855.03
2022-12-26T11:49:39.369Z,101851.72
2022-12-26T11:52:37.436Z,101844.75
2022-12-26T11:55:22.367Z,101852.13
2022-12-26T11:58:13.654Z,101864.06
2022-12-26T12:00:51.129Z,101861.88
2022-12-26T12:03:22.751Z,101852.19
2022-12-26T12:06:03.134Z,101835.63
2022-12-26T12:08:51.299Z,101836.19
2022-12-26T12:11:42.410Z,101835.44
2022-12-26T12:14:31.940Z,101844.06
2022-12-26T12:17:27.154Z,101844.22
2022-12-26T12:20:15.518Z,101840.94
2022-12-26T12:23:03.749Z,101833.78
2022-12-26T12:25:40.250Z,101830.47
2022-12-26T12:28:22.804Z,101829.91
2022-12-26T12:31:08.030Z,101843.50
2022-12-26T12:33:48.861Z,101840.00
2022-12-26T12:36:20.000Z,101833.06
2022-12-26T12:38:56.723Z,101842.06
2022-12-26T12:42:00.953Z,101838.91
2022-12-26T12:44:55.550Z,101836.53
2022-12-26T12:47:43.339Z,101829.72
2022-12-26T12:50:31.127Z,101831.72
2022-12-26T12:53:09.474Z,101826.56
2022-12-26T12:55:39.049Z,101830.81
2022-12-26T12:58:12.710Z,101840.19
2022-12-26T13:00:48.191Z,101825.34
2022-12-26T13:03:33.879Z,101827.91
2022-12-26T13:06:13.827Z,101833.22
2022-12-26T13:08:45.325Z,101812.81
2022-12-26T13:11:22.744Z,101815.06
2022-12-26T13:14:16.256Z,101821.13
2022-12-26T13:16:51.662Z,101825.03
2022-12-26T13:19:24.980Z,101821.94
2022-12-26T13:21:55.226Z,101808.16
2022-12-26T13:24:35.865Z,101809.81
2022-12-26T13:27:11.700Z,101804.69
2022-12-26T13:29:46.545Z,101802.63
2022-12-26T13:32:18.137Z,101797.47
2022-12-26T13:34:46.133Z,101799.31
2022-12-26T13:37:37.331Z,101800.22
2022-12-26T13:40:16.142Z,101795.09
2022-12-26T13:43:09.913Z,101799.31
2022-12-26T13:45:42.200Z,101795.09
2022-12-26T13:48:17.656Z,101793.25
2022-12-26T13:50:57.501Z,101794.19
2022-12-26T13:53:26.629Z,101796.75
2022-12-26T13:55:58.558Z,101798.56
2022-12-26T13:58:28.124Z,101792.66
2022-12-26T14:01:05.377Z,101789.38
2022-12-26T14:04:00.290Z,101790.84
2022-12-26T14:06:41.078Z,101788.69
2022-12-26T14:09:32.828Z,101781.16
2022-12-26T14:12:20.443Z,101789.97
2022-12-26T14:14:59.060Z,101800.81
2022-12-26T14:18:03.187Z,101794.19
2022-12-26T14:20:41.982Z,101800.22
2022-12-26T14:23:26.600Z,101806.09
2022-12-26T14:26:02.355Z,101808.66
2022-12-26T14:29:07.778Z,101809.75
2022-12-26T14:32:06.418Z,101814.75
2022-12-26T14:34:54.689Z,101810.50
2022-12-26T14:37:46.246Z,101816.81
2022-12-26T14:40:30.302Z,101811.13
2022-12-26T14:43:14.020Z,101810.06
2022-12-26T14:45:52.204Z,101806.75
2022-12-26T14:48:18.735Z,101802.69
2022-12-26T14:50:49.720Z,101804.09
2022-12-26T14:53:28.329Z,101797.47
2022-12-26T14:56:34.307Z,101799.88
2022-12-26T14:59:25.962Z,101793.69
2022-12-26T15:02:07.837Z,101800.44
2022-12-26T15:05:19.451Z,101803.78
2022-12-26T15:08:16.517Z,101799.72
2022-12-26T15:11:05.184Z,101806.34
2022-12-26T15:13:37.663Z,101793.91
2022-12-26T15:16:09.508Z,101782.34
2022-12-26T15:18:44.964Z,101774.09
2022-12-26T15:21:31.725Z,101774.09
2022-12-26T15:24:07.179Z,101772.84
2022-12-26T15:26:59.932Z,101766.03
2022-12-26T15:29:44.508Z,101757.44
2022-12-26T15:32:27.632Z,101761.66
2022-12-26T15:35:07.328Z,101764.44
2022-12-26T15:37:45.482Z,101771.25
2022-12-26T15:40:15.945Z,101788.50
2022-12-26T15:42:50.335Z,101787.56
2022-12-26T15:45:47.469Z,101770.84
2022-12-26T15:48:27.236Z,101780.94
2022-12-26T15:50:59.227Z,101787.75
2022-12-26T15:53:41.572Z,101781.84
2022-12-26T15:56:38.073Z,101784.03
2022-12-26T15:59:29.211Z,101781.44
2022-12-26T16:01:56.323Z,101777.41
2022-12-26T16:04:31.378Z,101782.94
2022-12-26T16:07:03.950Z,101785.00
2022-12-26T16:09:52.896Z,101798.78
2022-12-26T16:12:27.522Z,101794.69
2022-12-26T16:15:09.137Z,101792.47
2022-12-26T16:17:40.233Z,101789.16
2022-12-26T16:20:43.424Z,101791.00
2022-12-26T16:23:20.694Z,101786.97
2022-12-26T16:25:49.204Z,101793.63
2022-12-26T16:28:19.486Z,101783.41
2022-12-26T16:30:46.053Z,101774.28
2022-12-26T16:33:14.623Z,101787.47
2022-12-26T16:35:43.010Z,101786.91
2022-12-26T16:38:21.730Z,101778.69
2022-12-26T16:40:50.891Z,101785.31
2022-12-26T16:43:26.470Z,101789.09
2022-12-26T16:45:56.095Z,101784.47
2022-12-26T16:48:24.800Z,101777.88
2022-12-26T16:50:58.024Z,101783.00
2022-12-26T16:53:36.359Z,101792.19
2022-12-26T16:56:24.702Z,101794.34
2022-12-26T16:59:02.743Z,101783.75
2022-12-26T17:01:32.428Z,101789.22
2022-12-26T17:04:05.011Z,101775.66
2022-12-26T17:06:38.974Z,101790.13
2022-12-26T17:09:17.229Z,101787.47
2022-12-26T17:11:56.010Z,101783.06
2022-12-26T17:14:28.115Z,101791.84
2022-12-26T17:17:00.636Z,101802.31
2022-12-26T17:19:29.721Z,101810.75
2022-12-26T17:22:14.604Z,101806.50
2022-12-26T17:24:45.807Z,101797.50
2022-12-26T17:27:24.579Z,101796.03
2022-12-26T17:30:00.705Z,101785.41
2022-12-26T17:32:33.316Z,101787.81
2022-12-26T17:35:07.199Z,101776.44
2022-12-26T17:37:37.470Z,101764.19
2022-12-26T17:40:06.800Z,101767.84
2022-12-26T17:42:47.820Z,101749.69
2022-12-26T17:45:24.045Z,101748.19
2022-12-26T17:47:52.921Z,101738.84
2022-12-26T17:50:20.340Z,101727.66
2022-12-26T17:52:47.234Z,101736.44
2022-12-26T17:55:25.524Z,101736.44
2022-12-26T17:57:52.939Z,101743.25
2022-12-26T18:00:22.407Z,101750.38
2022-12-26T18:02:49.375Z,101748.53
2022-12-26T18:05:16.747Z,101751.16
2022-12-26T18:07:44.833Z,101756.88
2022-12-26T18:10:21.251Z,101761.09
2022-12-26T18:12:48.416Z,101757.22
2022-12-26T18:15:18.876Z,101753.00
2022-12-26T18:17:47.703Z,101753.34
2022-12-26T18:20:26.031Z,101757.72
2022-12-26T18:22:52.840Z,101744.16
2022-12-26T18:25:23.668Z,101739.75
2022-12-26T18:27:50.618Z,101734.84
2022-12-26T18:30:20.797Z,101738.50
2022-12-26T18:32:49.263Z,101735.94
2022-12-26T18:35:16.273Z,101727.34
2022-12-26T18:37:47.826Z,101712.25
2022-12-26T18:40:33.473Z,101717.06
2022-12-26T18:43:00.254Z,101729.13
2022-12-26T18:45:27.046Z,101732.03
2022-12-26T18:47:53.547Z,101737.94
2022-12-26T18:50:20.412Z,101737.94
2022-12-26T18:52:51.765Z,101734.09
2022-12-26T18:55:20.004Z,101732.47
2022-12-26T18:57:46.398Z,101737.03
2022-12-26T19:00:14.284Z,101735.53
2022-12-26T19:02:41.576Z,101730.41
2022-12-26T19:05:16.008Z,101725.84
2022-12-26T19:07:42.435Z,101711.94
2022-12-26T19:10:12.082Z,101722.91
2022-12-26T19:12:38.508Z,101722.75
2022-12-26T19:15:05.260Z,101728.13
2022-12-26T19:17:31.656Z,101727.44
2022-12-26T19:19:59.090Z,101714.19
2022-12-26T19:22:25.496Z,101717.09
2022-12-26T19:24:53.414Z,101721.50
2022-12-26T19:27:19.853Z,101713.03
2022-12-26T19:29:46.261Z,101712.66
2022-12-26T19:32:12.759Z,101719.28
2022-12-26T19:34:39.252Z,101721.84
2022-12-26T19:37:05.717Z,101716.47
2022-12-26T19:39:32.155Z,101723.44
2022-12-26T19:41:58.581Z,101711.16
2022-12-26T19:44:24.978Z,101712.06
2022-12-26T19:47:11.725Z,101715.56
2022-12-26T19:49:37.875Z,101712.06
2022-12-26T19:52:04.531Z,101714.31
2022-12-26T19:54:30.930Z,101705.13
2022-12-26T19:56:57.437Z,101701.06
2022-12-26T19:59:23.847Z,101706.44
2022-12-26T20:01:50.486Z,101704.63
2022-12-26T20:04:17.099Z,101702.63
2022-12-26T20:06:43.536Z,101701.47
2022-12-26T20:09:12.392Z,101692.88
2022-12-26T20:11:44.954Z,101701.28
2022-12-26T20:14:14.347Z,101706.78
2022-12-26T20:19:27.306Z,101711.00
2022-12-26T20:21:54.147Z,101706.59
2022-12-26T20:24:22.861Z,101712.47
2022-12-26T20:26:50.520Z,101711.00
2022-12-26T20:29:17.276Z,101715.63
2022-12-26T20:31:43.814Z,101726.31
2022-12-26T20:34:11.536Z,101721.56
2022-12-26T20:36:38.757Z,101713.88
2022-12-26T20:39:14.260Z,101718.63
2022-12-26T20:41:41.508Z,101722.41
2022-12-26T20:44:08.072Z,101723.31
2022-12-26T20:46:35.289Z,101723.31
2022-12-26T20:49:04.435Z,101718.75
2022-12-26T20:51:37.672Z,101729.78
2022-12-26T20:54:06.746Z,101721.31
2022-12-26T20:56:33.850Z,101729.72
2022-12-26T20:59:00.434Z,101728.44
2022-12-26T21:01:27.723Z,101736.53
2022-12-26T21:03:55.411Z,101737.25
2022-12-26T21:06:25.355Z,101740.91
2022-12-26T21:08:53.124Z,101746.38
2022-12-26T21:11:30.058Z,101734.47
2022-12-26T21:14:03.374Z,101733.56
2022-12-26T21:16:36.000Z,101737.59
2022-12-26T21:19:03.802Z,101744.38
2022-12-26T21:21:33.972Z,101733.56
2022-12-26T21:24:06.813Z,101733.88
2022-12-26T21:26:36.472Z,101734.78
2022-12-26T21:29:05.962Z,101737.75
2022-12-26T21:31:34.416Z,101748.28
2022-12-26T21:34:02.067Z,101744.22
2022-12-26T21:36:29.075Z,101745.69
2022-12-26T21:38:57.111Z,101752.06
2022-12-26T21:41:25.107Z,101750.25
2022-12-26T21:43:54.299Z,101755.22
2022-12-26T21:46:20.831Z,101750.84
2022-12-26T21:48:47.642Z,101754.13
2022-12-26T21:51:15.509Z,101752.66
2022-12-26T21:53:42.462Z,101755.06
2022-12-26T21:56:10.556Z,101752.50
2022-12-26T21:58:56.164Z,101749.00
2022-12-26T22:01:24.496Z,101752.50
2022-12-26T22:04:10.268Z,101754.63
2022-12-26T22:06:37.361Z,101753.72
2022-12-26T22:09:04.609Z,101755.56
2022-12-26T22:12:06.451Z,101752.06
2022-12-26T22:14:33.714Z,101760.34
2022-12-26T22:17:00.264Z,101757.78
2022-12-26T22:19:26.896Z,101753.56
2022-12-26T22:21:54.978Z,101769.31
2022-12-26T22:24:22.036Z,101764.75
2022-12-26T22:26:48.740Z,101763.81
2022-12-26T22:29:15.291Z,101770.97
2022-12-26T22:31:41.847Z,101769.31
2022-12-26T22:34:12.318Z,101769.31
2022-12-26T22:36:40.306Z,101757.78
2022-12-26T22:39:07.497Z,101766.56
2022-12-26T22:41:34.158Z,101758.69
2022-12-26T22:44:00.705Z,101762.19
2022-12-26T22:46:27.212Z,101767.34
2022-12-26T22:48:53.734Z,101756.66
2022-12-26T22:51:25.353Z,101744.72
2022-12-26T22:53:57.143Z,101743.06
2022-12-26T22:56:23.700Z,101742.75
2022-12-26T22:58:54.459Z,101745.13
2022-12-26T23:01:21.825Z,101743.28
2022-12-26T23:03:48.729Z,101744.38
2022-12-26T23:06:26.991Z,101738.25
2022-12-26T23:08:56.790Z,101721.75
2022-12-26T23:11:28.784Z,101721.03
2022-12-26T23:14:01.949Z,101721.22
2022-12-26T23:16:50.643Z,101714.81
2022-12-26T23:20:06.204Z,101725.28
2022-12-26T23:22:33.095Z,101717.97
2022-12-26T23:24:59.538Z,101712.66
2022-12-26T23:27:44.340Z,101720.53
2022-12-26T23:30:20.248Z,101716.69
2022-12-26T23:32:52.608Z,101716.38
2022-12-26T23:35:20.611Z,101714.38
2022-12-26T23:37:47.581Z,101712.16
2022-12-26T23:40:18.241Z,101716.38
2022-12-26T23:42:45.128Z,101713.81
2022-12-26T23:45:14.149Z,101715.47
2022-12-26T23:47:42.624Z,101719.66
2022-12-26T23:50:11.147Z,101725.38
2022-12-26T23:52:38.130Z,101724.34
2022-12-26T23:55:05.276Z,101728.25
2022-12-26T23:57:31.720Z,101725.28
2022-12-26T23:59:58.154Z,101728.91
